sensor_id;sensor_type;location;lat;lon;timestamp;P1;durP1;ratioP1;P2;durP2;ratioP2
35444;SDS011;21562;49.476;6.086;2024-01-07T00:00:02;15.60;;;8.38;;
35444;SDS011;21562;49.476;6.086;2024-01-07T00:02:29;15.52;;;8.65;;
35444;SDS011;21562;49.476;6.086;2024-01-07T00:04:55;18.35;;;9.18;;
35444;SDS011;21562;49.476;6.086;2024-01-07T00:07:21;20.52;;;9.88;;
35444;SDS011;21562;49.476;6.086;2024-01-07T00:09:47;17.52;;;9.30;;
35444;SDS011;21562;49.476;6.086;2024-01-07T00:12:13;18.90;;;9.80;;
35444;SDS011;21562;49.476;6.086;2024-01-07T00:14:38;17.35;;;9.07;;
35444;SDS011;21562;49.476;6.086;2024-01-07T00:17:04;17.77;;;10.15;;
35444;SDS011;21562;49.476;6.086;2024-01-07T00:19:30;19.73;;;9.90;;
35444;SDS011;21562;49.476;6.086;2024-01-07T00:22:00;17.08;;;9.05;;
35444;SDS011;21562;49.476;6.086;2024-01-07T00:24:26;20.48;;;9.65;;
35444;SDS011;21562;49.476;6.086;2024-01-07T00:26:54;20.30;;;9.85;;
35444;SDS011;21562;49.476;6.086;2024-01-07T00:29:20;17.83;;;9.20;;
35444;SDS011;21562;49.476;6.086;2024-01-07T00:31:46;19.20;;;9.70;;
35444;SDS011;21562;49.476;6.086;2024-01-07T00:34:11;23.05;;;10.70;;
35444;SDS011;21562;49.476;6.086;2024-01-07T00:36:37;19.88;;;10.15;;
35444;SDS011;21562;49.476;6.086;2024-01-07T00:39:03;19.90;;;11.40;;
35444;SDS011;21562;49.476;6.086;2024-01-07T00:41:29;20.95;;;11.02;;
35444;SDS011;21562;49.476;6.086;2024-01-07T00:43:58;20.63;;;10.13;;
35444;SDS011;21562;49.476;6.086;2024-01-07T00:46:23;23.40;;;10.70;;
35444;SDS011;21562;49.476;6.086;2024-01-07T00:48:49;24.42;;;12.43;;
35444;SDS011;21562;49.476;6.086;2024-01-07T00:51:14;24.75;;;11.27;;
35444;SDS011;21562;49.476;6.086;2024-01-07T00:53:40;21.02;;;10.73;;
35444;SDS011;21562;49.476;6.086;2024-01-07T00:56:06;24.15;;;11.50;;
35444;SDS011;21562;49.476;6.086;2024-01-07T00:58:32;21.83;;;10.98;;
35444;SDS011;21562;49.476;6.086;2024-01-07T01:00:58;23.30;;;10.93;;
35444;SDS011;21562;49.476;6.086;2024-01-07T01:03:25;25.83;;;11.68;;
35444;SDS011;21562;49.476;6.086;2024-01-07T01:05:51;24.70;;;12.15;;
35444;SDS011;21562;49.476;6.086;2024-01-07T01:08:17;23.48;;;11.20;;
35444;SDS011;21562;49.476;6.086;2024-01-07T01:10:43;19.13;;;10.40;;
35444;SDS011;21562;49.476;6.086;2024-01-07T01:13:08;22.67;;;11.85;;
35444;SDS011;21562;49.476;6.086;2024-01-07T01:15:34;23.90;;;11.65;;
35444;SDS011;21562;49.476;6.086;2024-01-07T01:18:00;22.70;;;11.60;;
35444;SDS011;21562;49.476;6.086;2024-01-07T01:20:26;25.67;;;11.80;;
35444;SDS011;21562;49.476;6.086;2024-01-07T01:22:51;22.17;;;11.93;;
35444;SDS011;21562;49.476;6.086;2024-01-07T01:25:17;24.75;;;12.32;;
35444;SDS011;21562;49.476;6.086;2024-01-07T01:27:43;22.75;;;11.73;;
35444;SDS011;21562;49.476;6.086;2024-01-07T01:30:10;26.75;;;12.05;;
35444;SDS011;21562;49.476;6.086;2024-01-07T01:32:36;21.25;;;10.75;;
35444;SDS011;21562;49.476;6.086;2024-01-07T01:35:01;25.65;;;11.85;;
35444;SDS011;21562;49.476;6.086;2024-01-07T01:37:27;21.05;;;11.18;;
35444;SDS011;21562;49.476;6.086;2024-01-07T01:39:53;21.65;;;10.60;;
35444;SDS011;21562;49.476;6.086;2024-01-07T01:42:18;24.23;;;11.57;;
35444;SDS011;21562;49.476;6.086;2024-01-07T01:44:45;22.50;;;10.73;;
35444;SDS011;21562;49.476;6.086;2024-01-07T01:47:11;19.17;;;9.63;;
35444;SDS011;21562;49.476;6.086;2024-01-07T01:49:37;19.13;;;9.90;;
35444;SDS011;21562;49.476;6.086;2024-01-07T01:52:03;18.38;;;9.65;;
35444;SDS011;21562;49.476;6.086;2024-01-07T01:54:29;17.58;;;9.82;;
35444;SDS011;21562;49.476;6.086;2024-01-07T01:56:55;19.13;;;9.15;;
35444;SDS011;21562;49.476;6.086;2024-01-07T01:59:21;20.88;;;10.77;;
35444;SDS011;21562;49.476;6.086;2024-01-07T02:01:47;16.35;;;9.60;;
35444;SDS011;21562;49.476;6.086;2024-01-07T02:04:14;16.88;;;9.10;;
35444;SDS011;21562;49.476;6.086;2024-01-07T02:06:40;18.85;;;9.45;;
35444;SDS011;21562;49.476;6.086;2024-01-07T02:09:06;17.35;;;8.95;;
35444;SDS011;21562;49.476;6.086;2024-01-07T02:11:32;15.52;;;7.70;;
35444;SDS011;21562;49.476;6.086;2024-01-07T02:13:58;14.32;;;7.93;;
35444;SDS011;21562;49.476;6.086;2024-01-07T02:16:23;17.40;;;8.68;;
35444;SDS011;21562;49.476;6.086;2024-01-07T02:18:49;17.25;;;8.88;;
35444;SDS011;21562;49.476;6.086;2024-01-07T02:21:15;17.63;;;8.15;;
35444;SDS011;21562;49.476;6.086;2024-01-07T02:23:41;15.25;;;8.13;;
35444;SDS011;21562;49.476;6.086;2024-01-07T02:26:06;17.40;;;8.55;;
35444;SDS011;21562;49.476;6.086;2024-01-07T02:28:32;14.75;;;8.20;;
35444;SDS011;21562;49.476;6.086;2024-01-07T02:30:59;12.65;;;7.28;;
35444;SDS011;21562;49.476;6.086;2024-01-07T02:33:24;14.20;;;7.55;;
35444;SDS011;21562;49.476;6.086;2024-01-07T02:35:50;15.27;;;8.30;;
35444;SDS011;21562;49.476;6.086;2024-01-07T02:38:16;13.93;;;8.23;;
35444;SDS011;21562;49.476;6.086;2024-01-07T02:40:41;15.65;;;7.82;;
35444;SDS011;21562;49.476;6.086;2024-01-07T02:43:07;14.57;;;8.07;;
35444;SDS011;21562;49.476;6.086;2024-01-07T02:45:33;16.33;;;8.48;;
35444;SDS011;21562;49.476;6.086;2024-01-07T02:47:59;15.05;;;7.68;;
35444;SDS011;21562;49.476;6.086;2024-01-07T02:50:25;14.27;;;7.75;;
35444;SDS011;21562;49.476;6.086;2024-01-07T02:52:50;14.77;;;8.35;;
35444;SDS011;21562;49.476;6.086;2024-01-07T02:55:16;14.20;;;7.47;;
35444;SDS011;21562;49.476;6.086;2024-01-07T02:57:42;14.68;;;8.15;;
35444;SDS011;21562;49.476;6.086;2024-01-07T03:00:08;13.27;;;7.22;;
35444;SDS011;21562;49.476;6.086;2024-01-07T03:02:34;17.85;;;8.77;;
35444;SDS011;21562;49.476;6.086;2024-01-07T03:04:59;15.93;;;7.00;;
35444;SDS011;21562;49.476;6.086;2024-01-07T03:07:25;16.13;;;8.30;;
35444;SDS011;21562;49.476;6.086;2024-01-07T03:09:51;14.77;;;8.45;;
35444;SDS011;21562;49.476;6.086;2024-01-07T03:12:16;18.65;;;9.57;;
35444;SDS011;21562;49.476;6.086;2024-01-07T03:14:42;16.88;;;8.68;;
35444;SDS011;21562;49.476;6.086;2024-01-07T03:17:09;20.35;;;10.23;;
35444;SDS011;21562;49.476;6.086;2024-01-07T03:19:37;17.20;;;8.93;;
35444;SDS011;21562;49.476;6.086;2024-01-07T03:22:03;16.65;;;8.38;;
35444;SDS011;21562;49.476;6.086;2024-01-07T03:24:29;18.13;;;9.55;;
35444;SDS011;21562;49.476;6.086;2024-01-07T03:26:54;14.05;;;8.02;;
35444;SDS011;21562;49.476;6.086;2024-01-07T03:29:20;16.67;;;8.50;;
35444;SDS011;21562;49.476;6.086;2024-01-07T03:31:46;15.15;;;8.13;;
35444;SDS011;21562;49.476;6.086;2024-01-07T03:34:11;16.70;;;8.50;;
35444;SDS011;21562;49.476;6.086;2024-01-07T03:36:37;16.02;;;8.75;;
35444;SDS011;21562;49.476;6.086;2024-01-07T03:39:03;17.70;;;8.98;;
35444;SDS011;21562;49.476;6.086;2024-01-07T03:41:28;17.40;;;9.20;;
35444;SDS011;21562;49.476;6.086;2024-01-07T03:43:54;17.45;;;8.65;;
35444;SDS011;21562;49.476;6.086;2024-01-07T03:46:21;17.38;;;8.77;;
35444;SDS011;21562;49.476;6.086;2024-01-07T03:48:47;15.70;;;8.60;;
35444;SDS011;21562;49.476;6.086;2024-01-07T03:51:13;18.75;;;9.27;;
35444;SDS011;21562;49.476;6.086;2024-01-07T03:53:38;16.63;;;7.78;;
35444;SDS011;21562;49.476;6.086;2024-01-07T03:56:04;17.98;;;8.50;;
35444;SDS011;21562;49.476;6.086;2024-01-07T03:58:30;14.75;;;7.72;;
35444;SDS011;21562;49.476;6.086;2024-01-07T04:00:56;17.55;;;8.98;;
35444;SDS011;21562;49.476;6.086;2024-01-07T04:03:22;14.30;;;8.15;;
35444;SDS011;21562;49.476;6.086;2024-01-07T04:05:47;15.85;;;8.15;;
35444;SDS011;21562;49.476;6.086;2024-01-07T04:08:13;14.85;;;7.95;;
35444;SDS011;21562;49.476;6.086;2024-01-07T04:10:40;17.75;;;8.27;;
35444;SDS011;21562;49.476;6.086;2024-01-07T04:13:06;14.82;;;8.02;;
35444;SDS011;21562;49.476;6.086;2024-01-07T04:15:33;16.60;;;8.75;;
35444;SDS011;21562;49.476;6.086;2024-01-07T04:18:02;18.08;;;8.80;;
35444;SDS011;21562;49.476;6.086;2024-01-07T04:20:28;15.82;;;8.70;;
35444;SDS011;21562;49.476;6.086;2024-01-07T07:24:47;18.02;;;3.97;;
35444;SDS011;21562;49.476;6.086;2024-01-07T07:27:12;24.20;;;10.32;;
35444;SDS011;21562;49.476;6.086;2024-01-07T07:29:38;21.90;;;11.63;;
35444;SDS011;21562;49.476;6.086;2024-01-07T07:32:04;16.80;;;7.95;;
35444;SDS011;21562;49.476;6.086;2024-01-07T07:34:30;13.77;;;7.65;;
35444;SDS011;21562;49.476;6.086;2024-01-07T07:36:55;16.35;;;8.52;;
35444;SDS011;21562;49.476;6.086;2024-01-07T07:39:21;16.23;;;8.00;;
35444;SDS011;21562;49.476;6.086;2024-01-07T07:41:47;15.10;;;7.80;;
35444;SDS011;21562;49.476;6.086;2024-01-07T07:44:13;13.90;;;7.32;;
35444;SDS011;21562;49.476;6.086;2024-01-07T07:46:39;15.82;;;7.85;;
35444;SDS011;21562;49.476;6.086;2024-01-07T07:49:04;13.10;;;7.25;;
35444;SDS011;21562;49.476;6.086;2024-01-07T07:51:30;15.60;;;7.45;;
35444;SDS011;21562;49.476;6.086;2024-01-07T07:53:56;13.45;;;7.07;;
35444;SDS011;21562;49.476;6.086;2024-01-07T07:56:22;15.40;;;7.63;;
35444;SDS011;21562;49.476;6.086;2024-01-07T07:58:48;13.98;;;7.22;;
35444;SDS011;21562;49.476;6.086;2024-01-07T08:01:13;13.75;;;7.00;;
35444;SDS011;21562;49.476;6.086;2024-01-07T08:03:39;16.02;;;8.05;;
35444;SDS011;21562;49.476;6.086;2024-01-07T08:06:05;15.30;;;7.63;;
35444;SDS011;21562;49.476;6.086;2024-01-07T08:08:31;17.52;;;7.72;;
35444;SDS011;21562;49.476;6.086;2024-01-07T08:10:57;14.48;;;7.40;;
35444;SDS011;21562;49.476;6.086;2024-01-07T08:13:23;13.57;;;7.30;;
35444;SDS011;21562;49.476;6.086;2024-01-07T08:15:48;16.35;;;7.63;;
35444;SDS011;21562;49.476;6.086;2024-01-07T08:18:14;16.00;;;7.90;;
35444;SDS011;21562;49.476;6.086;2024-01-07T08:20:39;15.88;;;7.70;;
35444;SDS011;21562;49.476;6.086;2024-01-07T08:23:05;12.32;;;6.80;;
35444;SDS011;21562;49.476;6.086;2024-01-07T08:25:31;14.18;;;7.13;;
35444;SDS011;21562;49.476;6.086;2024-01-07T08:27:57;14.35;;;8.07;;
35444;SDS011;21562;49.476;6.086;2024-01-07T08:30:22;15.23;;;7.07;;
35444;SDS011;21562;49.476;6.086;2024-01-07T08:32:48;14.82;;;7.50;;
35444;SDS011;21562;49.476;6.086;2024-01-07T08:35:14;17.58;;;8.20;;
35444;SDS011;21562;49.476;6.086;2024-01-07T08:37:40;16.60;;;8.70;;
35444;SDS011;21562;49.476;6.086;2024-01-07T08:40:06;17.52;;;8.27;;
35444;SDS011;21562;49.476;6.086;2024-01-07T08:42:34;17.83;;;8.45;;
35444;SDS011;21562;49.476;6.086;2024-01-07T08:45:00;16.60;;;7.65;;
35444;SDS011;21562;49.476;6.086;2024-01-07T08:47:28;17.08;;;7.53;;
35444;SDS011;21562;49.476;6.086;2024-01-07T08:49:56;15.40;;;7.47;;
35444;SDS011;21562;49.476;6.086;2024-01-07T08:52:22;16.67;;;7.93;;
35444;SDS011;21562;49.476;6.086;2024-01-07T08:54:48;15.30;;;7.90;;
35444;SDS011;21562;49.476;6.086;2024-01-07T08:57:14;15.75;;;7.65;;
35444;SDS011;21562;49.476;6.086;2024-01-07T08:59:39;17.05;;;8.68;;
35444;SDS011;21562;49.476;6.086;2024-01-07T09:02:05;15.05;;;7.85;;
35444;SDS011;21562;49.476;6.086;2024-01-07T09:04:31;14.20;;;7.32;;
35444;SDS011;21562;49.476;6.086;2024-01-07T09:06:58;16.98;;;8.65;;
35444;SDS011;21562;49.476;6.086;2024-01-07T09:09:24;14.45;;;7.57;;
35444;SDS011;21562;49.476;6.086;2024-01-07T09:11:51;15.48;;;8.15;;
35444;SDS011;21562;49.476;6.086;2024-01-07T09:14:17;15.45;;;7.63;;
35444;SDS011;21562;49.476;6.086;2024-01-07T09:16:43;14.30;;;7.18;;
35444;SDS011;21562;49.476;6.086;2024-01-07T09:19:08;15.07;;;7.03;;
35444;SDS011;21562;49.476;6.086;2024-01-07T09:21:34;15.10;;;7.75;;
35444;SDS011;21562;49.476;6.086;2024-01-07T09:24:00;14.35;;;6.72;;
35444;SDS011;21562;49.476;6.086;2024-01-07T09:26:25;16.95;;;8.25;;
35444;SDS011;21562;49.476;6.086;2024-01-07T09:28:51;12.93;;;6.63;;
35444;SDS011;21562;49.476;6.086;2024-01-07T09:31:17;15.27;;;7.25;;
35444;SDS011;21562;49.476;6.086;2024-01-07T09:33:42;14.15;;;7.68;;
35444;SDS011;21562;49.476;6.086;2024-01-07T09:36:08;18.42;;;7.75;;
35444;SDS011;21562;49.476;6.086;2024-01-07T09:38:34;15.73;;;7.85;;
35444;SDS011;21562;49.476;6.086;2024-01-07T09:41:00;15.35;;;7.63;;
35444;SDS011;21562;49.476;6.086;2024-01-07T09:43:26;16.10;;;7.07;;
35444;SDS011;21562;49.476;6.086;2024-01-07T09:45:51;14.00;;;7.28;;
35444;SDS011;21562;49.476;6.086;2024-01-07T09:48:19;14.35;;;7.03;;
35444;SDS011;21562;49.476;6.086;2024-01-07T09:50:44;16.35;;;7.60;;
35444;SDS011;21562;49.476;6.086;2024-01-07T09:53:14;17.38;;;8.88;;
35444;SDS011;21562;49.476;6.086;2024-01-07T09:55:57;18.83;;;8.90;;
35444;SDS011;21562;49.476;6.086;2024-01-07T09:58:37;16.25;;;7.97;;
35444;SDS011;21562;49.476;6.086;2024-01-07T10:01:02;16.13;;;7.75;;
35444;SDS011;21562;49.476;6.086;2024-01-07T10:03:30;19.13;;;7.65;;
35444;SDS011;21562;49.476;6.086;2024-01-07T10:05:56;17.55;;;8.18;;
35444;SDS011;21562;49.476;6.086;2024-01-07T10:08:21;16.35;;;7.38;;
35444;SDS011;21562;49.476;6.086;2024-01-07T10:10:50;20.70;;;8.43;;
35444;SDS011;21562;49.476;6.086;2024-01-07T10:13:15;17.35;;;7.85;;
35444;SDS011;21562;49.476;6.086;2024-01-07T10:15:41;17.80;;;7.45;;
35444;SDS011;21562;49.476;6.086;2024-01-07T10:18:07;17.63;;;7.88;;
35444;SDS011;21562;49.476;6.086;2024-01-07T10:20:33;15.75;;;7.88;;
35444;SDS011;21562;49.476;6.086;2024-01-07T10:23:00;13.82;;;7.03;;
35444;SDS011;21562;49.476;6.086;2024-01-07T10:25:26;13.02;;;6.90;;
35444;SDS011;21562;49.476;6.086;2024-01-07T10:27:53;11.98;;;6.05;;
35444;SDS011;21562;49.476;6.086;2024-01-07T10:30:18;12.38;;;6.40;;
35444;SDS011;21562;49.476;6.086;2024-01-07T10:32:44;13.10;;;6.35;;
35444;SDS011;21562;49.476;6.086;2024-01-07T10:35:14;14.02;;;6.95;;
35444;SDS011;21562;49.476;6.086;2024-01-07T10:40:11;10.85;;;5.63;;
35444;SDS011;21562;49.476;6.086;2024-01-07T10:42:37;12.43;;;6.50;;
35444;SDS011;21562;49.476;6.086;2024-01-07T10:45:04;8.98;;;5.28;;
35444;SDS011;21562;49.476;6.086;2024-01-07T10:47:30;9.35;;;5.60;;
35444;SDS011;21562;49.476;6.086;2024-01-07T10:49:57;11.55;;;6.30;;
35444;SDS011;21562;49.476;6.086;2024-01-07T10:52:24;11.63;;;6.20;;
35444;SDS011;21562;49.476;6.086;2024-01-07T10:54:52;11.15;;;6.20;;
35444;SDS011;21562;49.476;6.086;2024-01-07T10:57:27;11.75;;;6.20;;
35444;SDS011;21562;49.476;6.086;2024-01-07T10:59:56;10.32;;;5.30;;
35444;SDS011;21562;49.476;6.086;2024-01-07T11:02:23;8.68;;;5.30;;
35444;SDS011;21562;49.476;6.086;2024-01-07T11:04:56;10.60;;;5.80;;
35444;SDS011;21562;49.476;6.086;2024-01-07T11:07:53;10.20;;;6.18;;
35444;SDS011;21562;49.476;6.086;2024-01-07T11:10:38;9.50;;;5.47;;
35444;SDS011;21562;49.476;6.086;2024-01-07T11:13:08;8.07;;;5.20;;
35444;SDS011;21562;49.476;6.086;2024-01-07T11:18:19;9.40;;;5.22;;
35444;SDS011;21562;49.476;6.086;2024-01-07T11:20:45;10.52;;;5.47;;
35444;SDS011;21562;49.476;6.086;2024-01-07T11:23:31;10.40;;;5.05;;
35444;SDS011;21562;49.476;6.086;2024-01-07T11:26:05;7.82;;;4.85;;
35444;SDS011;21562;49.476;6.086;2024-01-07T11:28:47;6.72;;;4.55;;
35444;SDS011;21562;49.476;6.086;2024-01-07T11:31:18;8.05;;;4.60;;
35444;SDS011;21562;49.476;6.086;2024-01-07T11:33:45;8.07;;;5.07;;
35444;SDS011;21562;49.476;6.086;2024-01-07T11:36:15;10.23;;;4.95;;
35444;SDS011;21562;49.476;6.086;2024-01-07T11:38:45;8.68;;;4.93;;
35444;SDS011;21562;49.476;6.086;2024-01-07T11:41:14;8.13;;;5.15;;
35444;SDS011;21562;49.476;6.086;2024-01-07T11:43:55;7.22;;;4.15;;
35444;SDS011;21562;49.476;6.086;2024-01-07T11:46:24;7.47;;;4.35;;
35444;SDS011;21562;49.476;6.086;2024-01-07T11:48:54;8.82;;;4.70;;
35444;SDS011;21562;49.476;6.086;2024-01-07T11:51:30;8.77;;;5.20;;
35444;SDS011;21562;49.476;6.086;2024-01-07T11:53:57;10.40;;;5.60;;
35444;SDS011;21562;49.476;6.086;2024-01-07T11:56:26;6.95;;;4.75;;
35444;SDS011;21562;49.476;6.086;2024-01-07T11:58:52;9.63;;;4.45;;
35444;SDS011;21562;49.476;6.086;2024-01-07T12:01:18;6.60;;;4.18;;
35444;SDS011;21562;49.476;6.086;2024-01-07T12:03:45;7.43;;;4.05;;
35444;SDS011;21562;49.476;6.086;2024-01-07T12:06:12;6.80;;;4.03;;
35444;SDS011;21562;49.476;6.086;2024-01-07T12:08:39;5.93;;;3.75;;
35444;SDS011;21562;49.476;6.086;2024-01-07T12:11:06;7.28;;;4.32;;
35444;SDS011;21562;49.476;6.086;2024-01-07T12:13:32;6.50;;;3.83;;
35444;SDS011;21562;49.476;6.086;2024-01-07T12:15:58;7.15;;;4.50;;
35444;SDS011;21562;49.476;6.086;2024-01-07T12:18:24;9.05;;;3.97;;
35444;SDS011;21562;49.476;6.086;2024-01-07T12:20:54;7.57;;;4.68;;
35444;SDS011;21562;49.476;6.086;2024-01-07T12:23:24;5.45;;;3.58;;
35444;SDS011;21562;49.476;6.086;2024-01-07T12:25:53;7.20;;;3.97;;
35444;SDS011;21562;49.476;6.086;2024-01-07T12:28:20;11.95;;;5.80;;
35444;SDS011;21562;49.476;6.086;2024-01-07T12:30:49;8.65;;;4.97;;
35444;SDS011;21562;49.476;6.086;2024-01-07T12:33:16;7.00;;;4.80;;
35444;SDS011;21562;49.476;6.086;2024-01-07T12:35:44;4.05;;;3.35;;
35444;SDS011;21562;49.476;6.086;2024-01-07T12:38:13;5.32;;;3.13;;
35444;SDS011;21562;49.476;6.086;2024-01-07T12:40:38;6.22;;;3.33;;
35444;SDS011;21562;49.476;6.086;2024-01-07T12:43:04;4.80;;;3.33;;
35444;SDS011;21562;49.476;6.086;2024-01-07T12:45:32;4.72;;;3.28;;
35444;SDS011;21562;49.476;6.086;2024-01-07T12:47:58;6.90;;;3.63;;
35444;SDS011;21562;49.476;6.086;2024-01-07T12:50:27;7.25;;;4.43;;
35444;SDS011;21562;49.476;6.086;2024-01-07T12:52:55;7.50;;;4.10;;
35444;SDS011;21562;49.476;6.086;2024-01-07T12:55:22;7.20;;;4.32;;
35444;SDS011;21562;49.476;6.086;2024-01-07T12:57:47;8.15;;;4.50;;
35444;SDS011;21562;49.476;6.086;2024-01-07T13:00:14;6.93;;;4.13;;
35444;SDS011;21562;49.476;6.086;2024-01-07T13:02:40;7.10;;;4.20;;
35444;SDS011;21562;49.476;6.086;2024-01-07T13:05:06;9.50;;;5.38;;
35444;SDS011;21562;49.476;6.086;2024-01-07T13:07:32;11.88;;;5.82;;
35444;SDS011;21562;49.476;6.086;2024-01-07T13:09:58;9.80;;;6.20;;
35444;SDS011;21562;49.476;6.086;2024-01-07T13:12:24;11.35;;;6.28;;
35444;SDS011;21562;49.476;6.086;2024-01-07T13:14:50;10.93;;;6.32;;
35444;SDS011;21562;49.476;6.086;2024-01-07T13:17:15;17.80;;;7.07;;
35444;SDS011;21562;49.476;6.086;2024-01-07T13:19:41;12.98;;;7.22;;
35444;SDS011;21562;49.476;6.086;2024-01-07T13:22:07;11.15;;;6.63;;
35444;SDS011;21562;49.476;6.086;2024-01-07T13:24:34;13.93;;;7.28;;
35444;SDS011;21562;49.476;6.086;2024-01-07T13:27:00;14.07;;;7.60;;
35444;SDS011;21562;49.476;6.086;2024-01-07T13:29:25;11.63;;;7.28;;
35444;SDS011;21562;49.476;6.086;2024-01-07T13:31:51;13.68;;;8.05;;
35444;SDS011;21562;49.476;6.086;2024-01-07T13:34:17;12.95;;;7.45;;
35444;SDS011;21562;49.476;6.086;2024-01-07T13:36:43;13.77;;;7.75;;
35444;SDS011;21562;49.476;6.086;2024-01-07T13:39:09;12.68;;;6.93;;
35444;SDS011;21562;49.476;6.086;2024-01-07T13:41:35;13.82;;;7.53;;
35444;SDS011;21562;49.476;6.086;2024-01-07T13:44:02;13.32;;;7.15;;
35444;SDS011;21562;49.476;6.086;2024-01-07T13:46:32;15.07;;;7.90;;
35444;SDS011;21562;49.476;6.086;2024-01-07T13:48:58;17.00;;;7.63;;
35444;SDS011;21562;49.476;6.086;2024-01-07T13:51:24;14.15;;;7.53;;
35444;SDS011;21562;49.476;6.086;2024-01-07T13:53:51;15.10;;;7.93;;
35444;SDS011;21562;49.476;6.086;2024-01-07T13:56:17;12.63;;;7.55;;
35444;SDS011;21562;49.476;6.086;2024-01-07T13:58:43;15.95;;;7.60;;
35444;SDS011;21562;49.476;6.086;2024-01-07T14:01:11;14.00;;;7.82;;
35444;SDS011;21562;49.476;6.086;2024-01-07T14:03:41;13.38;;;7.28;;
35444;SDS011;21562;49.476;6.086;2024-01-07T14:06:07;14.30;;;7.53;;
35444;SDS011;21562;49.476;6.086;2024-01-07T14:08:33;12.40;;;7.00;;
35444;SDS011;21562;49.476;6.086;2024-01-07T14:10:58;13.07;;;7.32;;
35444;SDS011;21562;49.476;6.086;2024-01-07T14:13:24;12.77;;;7.63;;
35444;SDS011;21562;49.476;6.086;2024-01-07T14:15:49;13.20;;;7.63;;
35444;SDS011;21562;49.476;6.086;2024-01-07T14:18:15;13.23;;;7.80;;
35444;SDS011;21562;49.476;6.086;2024-01-07T14:20:42;14.35;;;8.32;;
35444;SDS011;21562;49.476;6.086;2024-01-07T14:23:07;13.23;;;6.90;;
35444;SDS011;21562;49.476;6.086;2024-01-07T14:25:34;13.50;;;7.10;;
35444;SDS011;21562;49.476;6.086;2024-01-07T14:28:00;11.35;;;6.60;;
35444;SDS011;21562;49.476;6.086;2024-01-07T14:30:26;12.93;;;7.00;;
35444;SDS011;21562;49.476;6.086;2024-01-07T14:32:52;12.10;;;7.28;;
35444;SDS011;21562;49.476;6.086;2024-01-07T14:35:18;11.05;;;6.57;;
35444;SDS011;21562;49.476;6.086;2024-01-07T14:37:44;11.52;;;6.50;;
35444;SDS011;21562;49.476;6.086;2024-01-07T14:40:10;12.95;;;7.10;;
35444;SDS011;21562;49.476;6.086;2024-01-07T14:42:35;12.70;;;7.22;;
35444;SDS011;21562;49.476;6.086;2024-01-07T14:45:01;13.93;;;7.55;;
35444;SDS011;21562;49.476;6.086;2024-01-07T14:47:29;12.43;;;6.82;;
35444;SDS011;21562;49.476;6.086;2024-01-07T14:49:55;12.98;;;7.50;;
35444;SDS011;21562;49.476;6.086;2024-01-07T14:52:20;16.50;;;8.13;;
35444;SDS011;21562;49.476;6.086;2024-01-07T14:54:46;16.23;;;8.80;;
35444;SDS011;21562;49.476;6.086;2024-01-07T14:57:11;20.48;;;8.68;;
35444;SDS011;21562;49.476;6.086;2024-01-07T14:59:37;15.55;;;7.30;;
35444;SDS011;21562;49.476;6.086;2024-01-07T15:02:03;13.70;;;7.38;;
35444;SDS011;21562;49.476;6.086;2024-01-07T15:04:29;17.38;;;8.88;;
35444;SDS011;21562;49.476;6.086;2024-01-07T15:06:54;16.05;;;8.95;;
35444;SDS011;21562;49.476;6.086;2024-01-07T15:09:21;15.68;;;8.98;;
35444;SDS011;21562;49.476;6.086;2024-01-07T15:11:47;13.48;;;7.35;;
35444;SDS011;21562;49.476;6.086;2024-01-07T15:14:14;13.90;;;8.23;;
35444;SDS011;21562;49.476;6.086;2024-01-07T15:16:40;13.98;;;8.07;;
35444;SDS011;21562;49.476;6.086;2024-01-07T15:19:06;13.88;;;7.93;;
35444;SDS011;21562;49.476;6.086;2024-01-07T15:21:31;14.55;;;8.40;;
35444;SDS011;21562;49.476;6.086;2024-01-07T15:23:57;14.23;;;7.70;;
35444;SDS011;21562;49.476;6.086;2024-01-07T15:26:23;15.13;;;8.10;;
35444;SDS011;21562;49.476;6.086;2024-01-07T15:28:49;13.18;;;7.40;;
35444;SDS011;21562;49.476;6.086;2024-01-07T15:31:14;13.45;;;7.85;;
35444;SDS011;21562;49.476;6.086;2024-01-07T15:33:40;16.33;;;8.90;;
35444;SDS011;21562;49.476;6.086;2024-01-07T15:36:06;16.92;;;9.30;;
35444;SDS011;21562;49.476;6.086;2024-01-07T15:38:32;17.08;;;9.68;;
35444;SDS011;21562;49.476;6.086;2024-01-07T15:40:58;20.23;;;9.95;;
35444;SDS011;21562;49.476;6.086;2024-01-07T15:43:24;17.23;;;9.60;;
35444;SDS011;21562;49.476;6.086;2024-01-07T15:45:50;19.15;;;10.13;;
35444;SDS011;21562;49.476;6.086;2024-01-07T15:48:15;19.13;;;10.07;;
35444;SDS011;21562;49.476;6.086;2024-01-07T15:50:41;20.23;;;10.60;;
35444;SDS011;21562;49.476;6.086;2024-01-07T15:53:07;20.35;;;10.88;;
35444;SDS011;21562;49.476;6.086;2024-01-07T15:55:32;22.33;;;11.25;;
35444;SDS011;21562;49.476;6.086;2024-01-07T15:57:58;20.73;;;10.57;;
35444;SDS011;21562;49.476;6.086;2024-01-07T16:00:24;21.48;;;11.07;;
35444;SDS011;21562;49.476;6.086;2024-01-07T16:02:49;23.52;;;11.07;;
35444;SDS011;21562;49.476;6.086;2024-01-07T16:05:15;23.63;;;11.48;;
35444;SDS011;21562;49.476;6.086;2024-01-07T16:07:41;19.35;;;10.82;;
35444;SDS011;21562;49.476;6.086;2024-01-07T16:10:07;21.75;;;11.00;;
35444;SDS011;21562;49.476;6.086;2024-01-07T16:12:33;21.67;;;11.63;;
35444;SDS011;21562;49.476;6.086;2024-01-07T16:14:59;21.65;;;11.48;;
35444;SDS011;21562;49.476;6.086;2024-01-07T16:17:25;23.77;;;11.80;;
35444;SDS011;21562;49.476;6.086;2024-01-07T16:19:51;21.63;;;11.23;;
35444;SDS011;21562;49.476;6.086;2024-01-07T16:22:16;21.83;;;11.88;;
35444;SDS011;21562;49.476;6.086;2024-01-07T16:24:54;20.70;;;11.07;;
35444;SDS011;21562;49.476;6.086;2024-01-07T16:27:20;20.10;;;10.95;;
35444;SDS011;21562;49.476;6.086;2024-01-07T16:29:46;21.52;;;11.27;;
35444;SDS011;21562;49.476;6.086;2024-01-07T16:32:14;19.20;;;10.45;;
35444;SDS011;21562;49.476;6.086;2024-01-07T16:34:40;21.17;;;11.50;;
35444;SDS011;21562;49.476;6.086;2024-01-07T16:37:06;20.42;;;10.88;;
35444;SDS011;21562;49.476;6.086;2024-01-07T16:39:32;21.95;;;11.20;;
35444;SDS011;21562;49.476;6.086;2024-01-07T16:41:58;19.52;;;10.48;;
35444;SDS011;21562;49.476;6.086;2024-01-07T16:44:24;19.52;;;9.85;;
35444;SDS011;21562;49.476;6.086;2024-01-07T16:46:52;21.05;;;10.77;;
35444;SDS011;21562;49.476;6.086;2024-01-07T16:49:18;18.23;;;9.38;;
35444;SDS011;21562;49.476;6.086;2024-01-07T16:51:44;18.35;;;9.40;;
35444;SDS011;21562;49.476;6.086;2024-01-07T16:54:10;17.15;;;9.32;;
35444;SDS011;21562;49.476;6.086;2024-01-07T16:56:35;17.95;;;8.75;;
35444;SDS011;21562;49.476;6.086;2024-01-07T16:59:01;15.07;;;9.05;;
35444;SDS011;21562;49.476;6.086;2024-01-07T17:01:27;14.88;;;8.45;;
35444;SDS011;21562;49.476;6.086;2024-01-07T17:03:52;16.88;;;9.52;;
35444;SDS011;21562;49.476;6.086;2024-01-07T17:06:21;15.50;;;8.18;;
35444;SDS011;21562;49.476;6.086;2024-01-07T17:08:51;17.83;;;8.60;;
35444;SDS011;21562;49.476;6.086;2024-01-07T17:11:16;14.32;;;8.80;;
35444;SDS011;21562;49.476;6.086;2024-01-07T17:13:42;16.48;;;8.55;;
35444;SDS011;21562;49.476;6.086;2024-01-07T17:16:08;15.57;;;8.55;;
35444;SDS011;21562;49.476;6.086;2024-01-07T17:18:33;15.20;;;8.75;;
35444;SDS011;21562;49.476;6.086;2024-01-07T17:20:59;18.65;;;9.45;;
35444;SDS011;21562;49.476;6.086;2024-01-07T17:23:25;17.10;;;9.77;;
35444;SDS011;21562;49.476;6.086;2024-01-07T17:25:51;17.23;;;10.15;;
35444;SDS011;21562;49.476;6.086;2024-01-07T17:28:17;16.90;;;9.40;;
35444;SDS011;21562;49.476;6.086;2024-01-07T17:30:42;20.88;;;10.15;;
35444;SDS011;21562;49.476;6.086;2024-01-07T17:33:08;19.10;;;11.20;;
35444;SDS011;21562;49.476;6.086;2024-01-07T17:35:36;17.13;;;9.25;;